createdAt,value
2023-05-20T00:01:47.919Z,7.46
2023-05-20T00:04:14.612Z,7.80
2023-05-20T00:06:41.346Z,8.14
2023-05-20T00:09:07.998Z,7.86
2023-05-20T00:11:34.636Z,7.54
2023-05-20T00:14:01.231Z,7.19
2023-05-20T00:16:27.905Z,7.95
2023-05-20T00:18:54.716Z,7.84
2023-05-20T00:21:21.402Z,7.73
2023-05-20T00:23:48.288Z,7.80
2023-05-20T00:26:14.942Z,7.70
2023-05-20T00:28:41.629Z,7.53
2023-05-20T00:31:08.531Z,7.53
2023-05-20T00:33:36.364Z,7.78
2023-05-20T00:36:03.006Z,7.81
2023-05-20T00:38:29.649Z,7.97
2023-05-20T00:40:56.313Z,7.62
2023-05-20T00:43:25.325Z,7.68
2023-05-20T00:45:53.800Z,8.22
2023-05-20T00:48:21.644Z,8.07
2023-05-20T00:50:50.416Z,8.00
2023-05-20T00:53:21.273Z,8.06
2023-05-20T00:55:48.136Z,8.08
2023-05-20T00:58:14.894Z,8.09
2023-05-20T01:00:41.665Z,7.99
2023-05-20T01:03:08.707Z,8.17
2023-05-20T01:05:35.867Z,8.03
2023-05-20T01:08:02.985Z,8.20
2023-05-20T01:10:30.674Z,7.86
2023-05-20T01:13:03.299Z,8.36
2023-05-20T01:15:31.572Z,8.27
2023-05-20T01:18:05.973Z,8.31
2023-05-20T01:20:33.436Z,8.42
2023-05-20T01:23:00.073Z,8.41
2023-05-20T01:25:27.061Z,8.35
2023-05-20T01:27:57.693Z,8.45
2023-05-20T01:30:33.732Z,8.46
2023-05-20T01:33:05.197Z,8.71
2023-05-20T01:35:32.500Z,8.91
2023-05-20T01:38:00.759Z,8.75
2023-05-20T01:40:28.312Z,9.09
2023-05-20T01:42:56.708Z,8.67
2023-05-20T01:45:25.316Z,8.56
2023-05-20T01:47:52.021Z,8.38
2023-05-20T01:50:18.813Z,8.37
2023-05-20T01:52:45.519Z,8.45
2023-05-20T01:55:12.834Z,8.56
2023-05-20T01:57:39.442Z,8.68
2023-05-20T02:00:06.992Z,8.61
2023-05-20T02:02:33.943Z,8.28
2023-05-20T02:05:00.773Z,8.65
2023-05-20T02:07:28.034Z,8.59
2023-05-20T02:09:54.664Z,8.83
2023-05-20T02:12:21.319Z,8.86
2023-05-20T02:14:48.388Z,8.66
2023-05-20T02:17:16.712Z,8.91
2023-05-20T02:19:47.231Z,8.87
2023-05-20T02:22:14.658Z,8.76
2023-05-20T02:24:43.135Z,8.82
2023-05-20T02:27:09.904Z,9.01
2023-05-20T02:29:37.005Z,9.08
2023-05-20T02:32:03.796Z,9.18
2023-05-20T02:34:32.944Z,9.33
2023-05-20T02:36:59.675Z,9.19
2023-05-20T02:39:26.579Z,9.15
2023-05-20T02:41:53.201Z,9.55
2023-05-20T02:44:20.062Z,8.62
2023-05-20T02:46:46.678Z,9.17
2023-05-20T02:49:13.298Z,9.60
2023-05-20T02:51:40.889Z,9.12
2023-05-20T02:54:07.568Z,9.38
2023-05-20T02:56:34.311Z,9.42
2023-05-20T02:59:01.093Z,9.63
2023-05-20T03:01:29.138Z,9.44
2023-05-20T03:03:55.884Z,9.77
2023-05-20T03:06:22.613Z,9.48
2023-05-20T03:08:49.203Z,9.37
2023-05-20T03:11:16.073Z,9.74
2023-05-20T03:13:42.744Z,9.55
2023-05-20T03:16:10.477Z,9.70
2023-05-20T03:18:37.138Z,9.87
2023-05-20T03:21:04.189Z,9.86
2023-05-20T03:23:30.843Z,9.83
2023-05-20T03:25:57.506Z,10.03
2023-05-20T03:28:24.118Z,9.72
2023-05-20T03:30:50.722Z,9.84
2023-05-20T03:33:17.357Z,10.03
2023-05-20T03:35:43.976Z,9.93
2023-05-20T03:38:10.672Z,10.02
2023-05-20T03:40:37.289Z,10.66
2023-05-20T03:43:03.978Z,10.09
2023-05-20T03:45:30.639Z,10.30
2023-05-20T03:47:57.280Z,10.15
2023-05-20T03:50:23.898Z,10.32
2023-05-20T03:52:50.515Z,10.17
2023-05-20T03:55:17.126Z,10.31
2023-05-20T03:57:43.724Z,10.41
2023-05-20T04:00:12.206Z,10.12
2023-05-20T04:02:39.008Z,10.38
2023-05-20T04:05:08.629Z,10.15
2023-05-20T04:07:35.884Z,10.24
2023-05-20T04:10:03.620Z,10.22
2023-05-20T04:12:32.178Z,10.34
2023-05-20T04:15:01.186Z,10.58
2023-05-20T04:17:31.563Z,10.05
2023-05-20T04:20:01.549Z,10.35
2023-05-20T04:22:28.234Z,10.52
2023-05-20T04:24:54.852Z,10.42
2023-05-20T04:27:21.689Z,10.39
2023-05-20T04:29:48.565Z,10.47
2023-05-20T04:32:18.742Z,9.99
2023-05-20T04:34:46.844Z,9.85
2023-05-20T04:37:14.023Z,9.67
2023-05-20T04:39:41.322Z,9.81
2023-05-20T04:42:07.912Z,9.72
2023-05-20T04:44:35.423Z,9.82
2023-05-20T04:47:02.117Z,9.88
2023-05-20T04:49:31.658Z,9.39
2023-05-20T04:51:58.549Z,9.76
2023-05-20T04:54:25.215Z,9.79
2023-05-20T04:56:52.230Z,9.64
2023-05-20T04:59:18.845Z,9.53
2023-05-20T05:01:45.582Z,9.95
2023-05-20T05:04:12.216Z,9.63
2023-05-20T05:06:38.950Z,9.34
2023-05-20T05:09:05.738Z,9.19
2023-05-20T05:11:32.347Z,9.16
2023-05-20T05:13:59.024Z,9.02
2023-05-20T05:16:26.030Z,9.20
2023-05-20T05:18:52.861Z,9.16
2023-05-20T05:21:19.491Z,9.56
2023-05-20T05:23:46.177Z,9.43
2023-05-20T05:26:12.831Z,9.07
2023-05-20T05:28:42.083Z,8.89
2023-05-20T05:31:09.017Z,8.77
2023-05-20T05:33:35.815Z,8.87
2023-05-20T05:36:02.657Z,8.52
2023-05-20T05:38:29.305Z,9.14
2023-05-20T05:40:56.329Z,8.84
2023-05-20T05:43:22.970Z,8.74
2023-05-20T05:45:49.607Z,8.59
2023-05-20T05:48:16.270Z,8.45
2023-05-20T05:50:46.915Z,8.57
2023-05-20T05:53:13.534Z,8.47
2023-05-20T05:55:40.220Z,8.55
2023-05-20T05:58:07.076Z,8.18
2023-05-20T06:00:33.906Z,8.37
2023-05-20T06:03:00.791Z,7.94
2023-05-20T06:05:29.340Z,7.81
2023-05-20T06:07:56.610Z,8.45
2023-05-20T06:10:23.629Z,8.20
2023-05-20T06:12:50.343Z,8.30
2023-05-20T06:15:16.962Z,7.97
2023-05-20T06:17:43.630Z,7.75
2023-05-20T06:20:10.767Z,7.95
2023-05-20T06:22:37.676Z,7.61
2023-05-20T06:25:04.643Z,7.44
2023-05-20T06:27:31.256Z,7.52
2023-05-20T06:29:57.914Z,7.05
2023-05-20T06:32:24.712Z,8.02
2023-05-20T06:34:51.458Z,7.27
2023-05-20T06:37:18.169Z,6.66
2023-05-20T06:39:46.786Z,6.94
2023-05-20T06:42:13.454Z,7.10
2023-05-20T06:44:40.158Z,6.89
2023-05-20T06:47:06.836Z,7.26
2023-05-20T06:49:33.495Z,6.67
2023-05-20T06:52:00.103Z,6.70
2023-05-20T06:54:26.829Z,6.52
2023-05-20T06:56:53.519Z,6.61
2023-05-20T06:59:20.134Z,6.44
2023-05-20T07:01:46.793Z,6.13
2023-05-20T07:04:13.556Z,6.45
2023-05-20T07:06:40.188Z,6.34
2023-05-20T07:09:07.089Z,6.35
2023-05-20T07:11:33.704Z,6.24
2023-05-20T07:14:00.483Z,6.27
2023-05-20T07:16:27.200Z,6.30
2023-05-20T07:18:54.501Z,6.04
2023-05-20T07:21:21.168Z,5.93
2023-05-20T07:23:48.333Z,6.01
2023-05-20T07:26:15.028Z,5.82
2023-05-20T07:28:41.950Z,5.60
2023-05-20T07:31:09.240Z,5.63
2023-05-20T07:33:35.888Z,5.36
2023-05-20T07:36:02.617Z,5.46
2023-05-20T07:38:29.905Z,5.18
2023-05-20T07:40:56.702Z,5.07
2023-05-20T07:43:23.349Z,5.21
2023-05-20T07:45:50.008Z,5.31
2023-05-20T07:48:16.702Z,4.89
2023-05-20T07:50:43.312Z,4.64
2023-05-20T07:53:09.955Z,4.46
2023-05-20T07:55:39.854Z,4.50
2023-05-20T07:58:06.517Z,4.35
2023-05-20T08:00:33.251Z,3.82
2023-05-20T08:03:00.138Z,3.72
2023-05-20T08:05:26.910Z,3.89
2023-05-20T08:07:53.574Z,3.89
2023-05-20T08:10:20.294Z,3.67
2023-05-20T08:12:47.251Z,3.83
2023-05-20T08:15:13.890Z,3.48
2023-05-20T08:17:40.617Z,3.37
2023-05-20T08:20:12.743Z,3.51
2023-05-20T08:22:39.894Z,3.20
2023-05-20T08:25:10.365Z,3.23
2023-05-20T08:27:37.358Z,3.25
2023-05-20T08:30:05.024Z,2.80
2023-05-20T08:32:31.723Z,3.29
2023-05-20T08:35:01.639Z,2.86
2023-05-20T08:37:29.241Z,2.99
2023-05-20T08:39:56.450Z,2.93
2023-05-20T08:42:24.579Z,2.87
2023-05-20T08:44:53.887Z,2.72
2023-05-20T08:47:24.649Z,2.77
2023-05-20T08:49:51.419Z,3.27
2023-05-20T08:52:21.719Z,3.09
2023-05-20T08:54:50.551Z,2.95
2023-05-20T08:57:17.811Z,3.07
2023-05-20T08:59:46.912Z,3.03
2023-05-20T09:02:14.261Z,3.16
2023-05-20T09:04:41.261Z,3.06
2023-05-20T09:07:08.428Z,2.91
2023-05-20T09:09:35.652Z,2.99
2023-05-20T09:12:03.611Z,2.64
2023-05-20T09:14:31.156Z,2.77
2023-05-20T09:16:58.076Z,2.93
2023-05-20T09:19:25.268Z,2.88
2023-05-20T09:21:56.171Z,2.91
2023-05-20T09:24:25.253Z,2.87
2023-05-20T09:26:52.724Z,3.12
2023-05-20T09:29:21.648Z,3.10
2023-05-20T09:31:49.414Z,2.93
2023-05-20T09:34:21.101Z,3.14
2023-05-20T09:36:53.544Z,3.09
2023-05-20T09:39:26.192Z,3.04
2023-05-20T09:42:03.842Z,2.68
2023-05-20T09:44:31.674Z,2.80
2023-05-20T09:46:59.955Z,3.05
2023-05-20T09:49:28.770Z,3.16
2023-05-20T09:51:57.263Z,3.08
2023-05-20T09:54:25.667Z,3.18
2023-05-20T09:56:53.537Z,3.35
2023-05-20T09:59:22.327Z,3.37
2023-05-20T10:01:49.012Z,3.40
2023-05-20T10:04:19.398Z,3.22
2023-05-20T10:07:53.553Z,3.12
2023-05-20T10:10:33.266Z,3.47
2023-05-20T10:13:26.476Z,3.19
2023-05-20T10:16:12.896Z,3.05
2023-05-20T10:18:48.412Z,3.13
2023-05-20T10:21:17.208Z,3.25
2023-05-20T10:23:44.353Z,3.17
2023-05-20T10:26:11.094Z,3.09
2023-05-20T10:28:40.897Z,3.21
2023-05-20T10:31:19.046Z,3.13
2023-05-20T10:33:46.704Z,3.32
2023-05-20T10:36:26.913Z,3.16
2023-05-20T10:38:59.265Z,3.14
2023-05-20T10:41:28.848Z,3.32
2023-05-20T10:44:05.897Z,3.35
2023-05-20T10:46:48.296Z,3.26
2023-05-20T10:49:24.185Z,3.25
2023-05-20T10:51:52.107Z,3.20
2023-05-20T10:54:18.946Z,3.39
2023-05-20T10:56:54.148Z,3.15
2023-05-20T10:59:22.017Z,3.26
2023-05-20T11:01:49.419Z,3.27
2023-05-20T11:04:17.441Z,2.92
2023-05-20T11:06:54.297Z,2.92
2023-05-20T11:09:22.465Z,3.20
2023-05-20T11:11:51.343Z,3.21
2023-05-20T11:14:19.961Z,3.25
2023-05-20T11:16:46.982Z,3.27
2023-05-20T11:19:17.296Z,3.18
2023-05-20T11:21:44.913Z,3.02
2023-05-20T11:24:12.660Z,2.99
2023-05-20T11:26:39.967Z,3.04
2023-05-20T11:29:07.025Z,3.09
2023-05-20T11:31:34.003Z,3.09
2023-05-20T11:34:04.205Z,3.05
2023-05-20T11:36:31.144Z,3.32
2023-05-20T11:38:58.940Z,3.31
2023-05-20T11:41:27.279Z,3.35
2023-05-20T11:44:00.306Z,3.40
2023-05-20T11:46:28.122Z,3.09
2023-05-20T11:48:55.603Z,3.02
2023-05-20T11:51:27.876Z,3.11
2023-05-20T11:54:01.338Z,3.40
2023-05-20T11:56:33.386Z,3.31
2023-05-20T11:59:01.470Z,3.28
2023-05-20T12:01:37.757Z,3.44
2023-05-20T12:04:08.402Z,3.23
2023-05-20T12:06:37.203Z,3.39
2023-05-20T12:09:07.295Z,3.28
2023-05-20T12:11:40.691Z,3.17
2023-05-20T12:14:08.603Z,3.16
2023-05-20T12:16:36.439Z,3.26
2023-05-20T12:19:04.275Z,3.20
2023-05-20T12:21:32.021Z,3.01
2023-05-20T12:24:02.053Z,2.85
2023-05-20T12:26:30.152Z,2.94
2023-05-20T12:28:57.348Z,2.84
2023-05-20T12:31:25.306Z,2.77
2023-05-20T12:33:52.028Z,2.98
2023-05-20T12:36:19.616Z,2.70
2023-05-20T12:38:46.716Z,2.76
2023-05-20T12:41:13.364Z,2.84
2023-05-20T12:43:39.940Z,2.80
2023-05-20T12:46:06.847Z,2.77
2023-05-20T12:48:33.490Z,3.29
2023-05-20T12:51:00.255Z,3.34
2023-05-20T12:53:26.879Z,2.98
2023-05-20T12:55:53.719Z,3.14
2023-05-20T12:58:20.533Z,3.01
2023-05-20T13:00:47.213Z,3.03
2023-05-20T13:03:14.102Z,3.02
2023-05-20T13:05:40.921Z,3.15
2023-05-20T13:08:09.065Z,2.93
2023-05-20T13:10:36.278Z,2.94
2023-05-20T13:13:03.143Z,2.90
2023-05-20T13:15:29.798Z,2.97
2023-05-20T13:17:56.512Z,3.10
2023-05-20T13:20:23.229Z,2.81
2023-05-20T13:22:50.393Z,2.91
2023-05-20T13:25:17.409Z,2.73
2023-05-20T13:27:44.054Z,2.90
2023-05-20T13:30:11.037Z,2.98
2023-05-20T13:32:38.018Z,2.99
2023-05-20T13:35:05.321Z,2.99
2023-05-20T13:37:32.030Z,3.14
2023-05-20T13:39:58.682Z,3.01
2023-05-20T13:42:25.309Z,2.88
2023-05-20T13:44:52.017Z,2.96
2023-05-20T13:47:19.360Z,3.10
2023-05-20T13:49:46.037Z,2.94
2023-05-20T13:52:12.715Z,2.78
2023-05-20T13:54:40.027Z,2.79
2023-05-20T13:57:08.065Z,2.99
2023-05-20T13:59:35.146Z,2.91
2023-05-20T14:02:02.409Z,2.58
2023-05-20T14:04:31.193Z,3.05
2023-05-20T14:06:59.274Z,2.73
2023-05-20T14:09:26.365Z,2.67
2023-05-20T14:11:53.131Z,2.69
2023-05-20T14:14:19.844Z,2.66
2023-05-20T14:16:46.566Z,2.70
2023-05-20T14:19:13.322Z,2.82
2023-05-20T14:21:40.019Z,2.70
2023-05-20T14:24:07.071Z,2.92
2023-05-20T14:26:34.566Z,2.57
2023-05-20T14:29:01.837Z,2.56
2023-05-20T14:31:28.530Z,2.67
2023-05-20T14:33:55.193Z,2.80
2023-05-20T14:36:21.874Z,2.70
2023-05-20T14:38:49.627Z,2.69
2023-05-20T14:41:16.725Z,2.47
2023-05-20T14:43:43.394Z,2.63
2023-05-20T14:46:10.538Z,2.80
2023-05-20T14:48:37.318Z,2.68
2023-05-20T14:51:04.062Z,2.67
2023-05-20T14:53:30.800Z,2.55
2023-05-20T14:55:57.588Z,2.52
2023-05-20T14:58:24.425Z,2.65
2023-05-20T15:00:52.972Z,2.49
2023-05-20T15:03:20.395Z,2.87
2023-05-20T15:05:47.194Z,2.69
2023-05-20T15:08:13.982Z,2.61
2023-05-20T15:10:40.628Z,2.60
2023-05-20T15:13:07.452Z,2.78
2023-05-20T15:15:34.436Z,2.89
2023-05-20T15:18:01.976Z,2.62
2023-05-20T15:20:28.667Z,2.64
2023-05-20T15:22:58.477Z,2.76
2023-05-20T15:25:25.932Z,2.71
2023-05-20T15:27:52.561Z,2.66
2023-05-20T15:30:19.290Z,2.96
2023-05-20T15:32:46.024Z,2.75
2023-05-20T15:35:12.757Z,2.56
2023-05-20T15:37:39.464Z,2.72
2023-05-20T15:40:06.761Z,2.64
2023-05-20T15:42:33.428Z,2.71
2023-05-20T15:45:00.207Z,2.84
2023-05-20T15:47:26.891Z,2.66
2023-05-20T15:49:56.797Z,2.99
2023-05-20T15:52:24.081Z,2.81
2023-05-20T15:54:51.015Z,2.90
2023-05-20T15:57:17.886Z,2.71
2023-05-20T15:59:44.562Z,2.43
2023-05-20T16:02:11.353Z,2.63
2023-05-20T16:04:38.049Z,2.61
2023-05-20T16:07:04.904Z,2.57
2023-05-20T16:09:31.640Z,2.68
2023-05-20T16:11:58.256Z,2.74
2023-05-20T16:14:24.915Z,2.51
2023-05-20T16:16:51.552Z,2.59
2023-05-20T16:19:18.332Z,2.71
2023-05-20T16:21:45.087Z,2.66
2023-05-20T16:24:12.366Z,2.48
2023-05-20T16:26:39.115Z,3.23
2023-05-20T16:29:05.809Z,3.82
2023-05-20T16:31:32.524Z,5.80
2023-05-20T16:33:59.201Z,5.69
2023-05-20T16:36:25.972Z,3.61
2023-05-20T16:38:52.657Z,2.88
2023-05-20T16:41:19.272Z,2.79
2023-05-20T16:43:45.918Z,2.81
2023-05-20T16:46:14.531Z,3.23
2023-05-20T16:48:42.429Z,2.88
2023-05-20T16:51:09.034Z,2.75
2023-05-20T16:53:35.969Z,2.85
2023-05-20T16:56:03.165Z,2.42
2023-05-20T16:58:29.746Z,2.70
2023-05-20T17:00:56.537Z,2.64
2023-05-20T17:03:23.863Z,2.74
2023-05-20T17:05:50.494Z,2.65
2023-05-20T17:08:18.232Z,3.22
2023-05-20T17:10:45.772Z,3.96
2023-05-20T17:13:12.379Z,3.40
2023-05-20T17:15:38.998Z,3.04
2023-05-20T17:18:05.918Z,3.18
2023-05-20T17:20:33.069Z,3.18
2023-05-20T17:23:00.241Z,3.04
2023-05-20T17:25:26.924Z,2.95
2023-05-20T17:27:53.526Z,2.74
2023-05-20T17:30:20.530Z,2.87
2023-05-20T17:32:47.200Z,3.26
2023-05-20T17:35:13.927Z,3.10
2023-05-20T17:37:40.588Z,3.06
2023-05-20T17:40:07.777Z,3.23
2023-05-20T17:42:35.071Z,2.97
2023-05-20T17:45:01.744Z,3.06
2023-05-20T17:47:28.406Z,3.17
2023-05-20T17:49:55.053Z,3.06
2023-05-20T17:52:21.701Z,3.23
2023-05-20T17:54:48.357Z,3.82
2023-05-20T17:57:15.023Z,4.01
2023-05-20T17:59:42.086Z,4.35
2023-05-20T18:02:08.883Z,3.59
2023-05-20T18:04:35.806Z,3.13
2023-05-20T18:07:03.975Z,3.26
2023-05-20T18:09:31.124Z,3.04
2023-05-20T18:11:57.909Z,3.43
2023-05-20T18:14:26.481Z,3.33
2023-05-20T18:16:57.505Z,3.23
2023-05-20T18:19:24.679Z,3.14
2023-05-20T18:21:51.842Z,3.32
2023-05-20T18:24:20.335Z,3.26
2023-05-20T18:26:47.308Z,3.17
2023-05-20T18:29:13.972Z,3.30
2023-05-20T18:31:42.710Z,3.42
2023-05-20T18:34:10.737Z,3.49
2023-05-20T18:36:37.790Z,3.21
2023-05-20T18:39:04.839Z,3.58
2023-05-20T18:41:43.143Z,3.16
2023-05-20T18:44:17.313Z,3.33
2023-05-20T18:46:44.435Z,3.15
2023-05-20T18:49:11.176Z,3.30
2023-05-20T18:51:41.049Z,3.19
2023-05-20T18:54:08.352Z,3.17
2023-05-20T18:56:35.755Z,3.29
2023-05-20T18:59:02.499Z,3.80
2023-05-20T19:01:29.366Z,3.45
2023-05-20T19:03:56.171Z,3.77
2023-05-20T19:06:22.853Z,3.44
2023-05-20T19:08:49.597Z,3.41
2023-05-20T19:11:16.561Z,3.45
2023-05-20T19:13:43.364Z,3.25
2023-05-20T19:16:10.201Z,3.23
2023-05-20T19:18:36.892Z,3.44
2023-05-20T19:21:03.712Z,3.39
2023-05-20T19:23:30.535Z,3.49
2023-05-20T19:25:57.193Z,3.49
2023-05-20T19:28:23.862Z,3.51
2023-05-20T19:30:50.564Z,3.47
2023-05-20T19:33:17.272Z,3.48
2023-05-20T19:35:44.005Z,3.30
2023-05-20T19:38:10.782Z,3.34
2023-05-20T19:40:37.427Z,3.47
2023-05-20T19:43:04.612Z,3.20
2023-05-20T19:45:31.302Z,3.57
2023-05-20T19:47:58.430Z,3.22
2023-05-20T19:50:25.315Z,3.47
2023-05-20T19:52:52.381Z,3.50
2023-05-20T19:55:19.008Z,3.58
2023-05-20T19:57:47.595Z,3.85
2023-05-20T20:00:15.417Z,3.73
2023-05-20T20:02:42.090Z,3.77
2023-05-20T20:05:09.194Z,3.78
2023-05-20T20:07:35.912Z,3.89
2023-05-20T20:10:03.227Z,4.03
2023-05-20T20:12:29.834Z,3.81
2023-05-20T20:14:56.454Z,3.48
2023-05-20T20:17:23.674Z,3.57
2023-05-20T20:19:53.310Z,3.84
2023-05-20T20:22:20.120Z,3.79
2023-05-20T20:24:47.170Z,3.89
2023-05-20T20:27:13.889Z,4.17
2023-05-20T20:29:43.351Z,3.91
2023-05-20T20:32:10.261Z,4.32
2023-05-20T20:34:37.392Z,4.13
2023-05-20T20:37:04.212Z,4.02
2023-05-20T20:39:30.895Z,4.34
2023-05-20T20:41:58.683Z,4.01
2023-05-20T20:44:25.527Z,3.79
2023-05-20T20:46:54.800Z,4.01
2023-05-20T20:49:23.014Z,4.30
2023-05-20T20:51:50.443Z,4.47
2023-05-20T20:54:17.099Z,4.38
2023-05-20T20:56:46.820Z,4.63
2023-05-20T20:59:15.641Z,3.93
2023-05-20T21:01:42.695Z,4.14
2023-05-20T21:04:09.632Z,4.47
2023-05-20T21:06:37.861Z,4.53
2023-05-20T21:09:04.777Z,4.37
2023-05-20T21:11:31.765Z,4.34
2023-05-20T21:13:58.424Z,4.32
2023-05-20T21:16:25.073Z,4.53
2023-05-20T21:18:51.775Z,4.37
2023-05-20T21:21:21.518Z,4.34
2023-05-20T21:23:50.822Z,4.31
2023-05-20T21:26:17.710Z,4.30
2023-05-20T21:28:44.314Z,4.18
2023-05-20T21:31:10.937Z,4.37
2023-05-20T21:33:37.620Z,4.05
2023-05-20T21:36:04.697Z,4.18
2023-05-20T21:38:31.985Z,4.49
2023-05-20T21:40:58.793Z,4.82
2023-05-20T21:43:25.493Z,4.74
2023-05-20T21:45:53.015Z,4.71
2023-05-20T21:48:19.993Z,4.60
2023-05-20T21:50:46.622Z,4.55
2023-05-20T21:53:13.254Z,4.79
2023-05-20T21:55:39.851Z,4.57
2023-05-20T21:58:06.503Z,4.63
2023-05-20T22:00:33.633Z,4.75
2023-05-20T22:03:00.350Z,4.51
2023-05-20T22:05:27.441Z,4.55
2023-05-20T22:07:54.582Z,4.63
2023-05-20T22:10:22.519Z,4.75
2023-05-20T22:12:50.952Z,4.41
2023-05-20T22:15:17.605Z,4.51
2023-05-20T22:17:44.788Z,4.44
2023-05-20T22:20:12.217Z,4.54
2023-05-20T22:22:39.236Z,4.41
2023-05-20T22:25:09.191Z,4.54
2023-05-20T22:27:35.858Z,4.78
2023-05-20T22:30:05.984Z,4.84
2023-05-20T22:32:33.093Z,4.66
2023-05-20T22:34:59.828Z,4.84
2023-05-20T22:37:28.828Z,4.75
2023-05-20T22:39:56.264Z,4.71
2023-05-20T22:42:23.031Z,4.78
2023-05-20T22:44:49.891Z,4.91
2023-05-20T22:47:16.521Z,5.13
2023-05-20T22:49:43.218Z,4.91
2023-05-20T22:52:10.019Z,4.84
2023-05-20T22:54:36.632Z,5.10
2023-05-20T22:57:03.378Z,4.80
2023-05-20T22:59:31.361Z,5.08
2023-05-20T23:01:58.055Z,4.73
2023-05-20T23:04:24.811Z,5.15
2023-05-20T23:06:53.836Z,5.00
2023-05-20T23:09:20.966Z,4.80
2023-05-20T23:11:47.614Z,5.01
2023-05-20T23:14:14.274Z,5.20
2023-05-20T23:16:42.211Z,4.93
2023-05-20T23:19:09.186Z,5.18
2023-05-20T23:21:37.261Z,4.92
2023-05-20T23:24:04.490Z,5.04
2023-05-20T23:26:31.507Z,5.25
2023-05-20T23:28:58.137Z,4.93
2023-05-20T23:31:26.904Z,4.89
2023-05-20T23:33:54.236Z,5.15
2023-05-20T23:36:20.994Z,5.03
2023-05-20T23:38:47.725Z,5.01
2023-05-20T23:41:14.398Z,4.98
2023-05-20T23:43:41.206Z,5.06
2023-05-20T23:46:08.180Z,5.20
2023-05-20T23:48:35.964Z,5.41
2023-05-20T23:51:03.124Z,5.34
2023-05-20T23:53:29.998Z,5.42
2023-05-20T23:55:56.598Z,5.61
2023-05-20T23:58:23.603Z,5.88
